createdAt,value
2022-12-04T00:01:24.307Z,143572.31
2022-12-04T00:03:56.280Z,143591.63
2022-12-04T00:06:24.651Z,143580.75
2022-12-04T00:08:52.811Z,143548.13
2022-12-04T00:11:22.355Z,143591.63
2022-12-04T00:13:49.447Z,143598.88
2022-12-04T00:16:23.117Z,143603.69
2022-12-04T00:18:50.613Z,143562.66
2022-12-04T00:21:18.808Z,143574.69
2022-12-04T00:23:46.605Z,143540.94
2022-12-04T00:26:16.197Z,143555.41
2022-12-04T00:28:43.778Z,143563.84
2022-12-04T00:31:14.073Z,143540.94
2022-12-04T00:33:41.174Z,143446.78
2022-12-04T00:36:11.398Z,143388.88
2022-12-04T00:38:39.989Z,143528.84
2022-12-04T00:41:18.556Z,143574.69
2022-12-04T00:43:48.498Z,143573.50
2022-12-04T00:46:16.390Z,143382.84
2022-12-04T00:48:43.911Z,143540.94
2022-12-04T00:51:37.272Z,143584.34
2022-12-04T00:54:04.337Z,143565.06
2022-12-04T00:56:31.380Z,143569.88
2022-12-04T00:59:01.094Z,143569.88
2022-12-04T01:01:29.341Z,143530.03
2022-12-04T01:03:57.564Z,143404.56
2022-12-04T01:06:30.132Z,143566.25
2022-12-04T01:08:59.075Z,143562.66
2022-12-04T01:11:27.585Z,143565.06
2022-12-04T01:13:54.933Z,143524.00
2022-12-04T01:16:28.175Z,143533.66
2022-12-04T01:18:55.961Z,143531.28
2022-12-04T01:21:23.487Z,143513.16
2022-12-04T01:23:50.624Z,143388.88
2022-12-04T01:26:17.610Z,143565.06
2022-12-04T01:28:44.600Z,143456.44
2022-12-04T01:31:15.260Z,143526.44
2022-12-04T01:33:42.670Z,143538.50
2022-12-04T01:36:13.262Z,143577.13
2022-12-04T01:38:40.944Z,143530.03
2022-12-04T01:41:10.243Z,143516.75
2022-12-04T01:43:38.868Z,143524.00
2022-12-04T01:46:07.572Z,143524.00
2022-12-04T01:48:34.671Z,143522.81
2022-12-04T01:51:18.586Z,143516.75
2022-12-04T01:53:52.999Z,143503.47
2022-12-04T01:56:23.805Z,143507.09
2022-12-04T01:58:54.536Z,143470.91
2022-12-04T02:01:21.623Z,143492.63
2022-12-04T02:03:49.358Z,143502.28
2022-12-04T02:06:16.343Z,143480.56
2022-12-04T02:08:43.473Z,143473.34
2022-12-04T02:11:27.845Z,143458.88
2022-12-04T02:14:12.738Z,143434.72
2022-12-04T02:16:56.239Z,143454.03
2022-12-04T02:20:04.664Z,143454.03
2022-12-04T02:22:46.656Z,143417.84
2022-12-04T02:25:48.061Z,143431.06
2022-12-04T02:28:30.738Z,143417.84
2022-12-04T02:30:59.755Z,143439.53
2022-12-04T02:33:33.931Z,143422.66
2022-12-04T02:36:13.173Z,143433.50
2022-12-04T02:38:54.343Z,143416.59
2022-12-04T02:41:27.528Z,143409.41
2022-12-04T02:44:08.945Z,143427.50
2022-12-04T02:46:39.954Z,143403.34
2022-12-04T02:49:10.144Z,143417.84
2022-12-04T02:51:39.354Z,143422.66
2022-12-04T02:54:09.300Z,143388.88
2022-12-04T02:56:39.819Z,143412.97
2022-12-04T02:59:12.995Z,143400.94
2022-12-04T03:01:42.962Z,143427.50
2022-12-04T03:04:18.334Z,143422.66
2022-12-04T03:06:47.504Z,143410.59
2022-12-04T03:09:20.076Z,143415.41
2022-12-04T03:11:50.183Z,143412.97
2022-12-04T03:14:37.607Z,143400.94
2022-12-04T03:17:08.207Z,143404.56
2022-12-04T03:19:38.610Z,143400.94
2022-12-04T03:22:08.203Z,143417.84
2022-12-04T03:24:40.594Z,143381.66
2022-12-04T03:27:26.207Z,143396.13
2022-12-04T03:29:55.238Z,143414.22
2022-12-04T03:32:35.909Z,143412.97
2022-12-04T03:35:22.986Z,143391.31
2022-12-04T03:38:04.658Z,143421.44
2022-12-04T03:40:39.811Z,143415.41
2022-12-04T03:43:06.583Z,143410.59
2022-12-04T03:45:43.655Z,143403.34
2022-12-04T03:48:22.515Z,143425.06
2022-12-04T03:50:52.345Z,143432.31
2022-12-04T03:53:25.329Z,143432.31
2022-12-04T03:55:56.191Z,143415.41
2022-12-04T03:58:25.868Z,143422.66
2022-12-04T04:00:53.648Z,143421.44
2022-12-04T04:03:31.659Z,143422.66
2022-12-04T04:06:01.911Z,143391.31
2022-12-04T04:08:34.023Z,143391.31
2022-12-04T04:11:10.576Z,143374.41
2022-12-04T04:14:05.917Z,143388.88
2022-12-04T04:16:52.629Z,143415.41
2022-12-04T04:19:38.730Z,143387.66
2022-12-04T04:22:26.489Z,143386.47
2022-12-04T04:24:59.535Z,143386.47
2022-12-04T04:27:26.422Z,143357.50
2022-12-04T04:29:53.482Z,143381.66
2022-12-04T04:32:27.820Z,143385.25
2022-12-04T04:35:13.165Z,143406.97
2022-12-04T04:37:52.077Z,143408.16
2022-12-04T04:40:30.893Z,143420.25
2022-12-04T04:43:07.242Z,143422.66
2022-12-04T04:45:45.657Z,143382.84
2022-12-04T04:48:15.680Z,143385.25
2022-12-04T04:50:44.121Z,143350.28
2022-12-04T04:53:13.468Z,143357.50
2022-12-04T04:55:40.857Z,143361.13
2022-12-04T04:58:12.936Z,143379.22
2022-12-04T05:00:40.129Z,143400.94
2022-12-04T05:03:07.022Z,143396.13
2022-12-04T05:05:33.848Z,143388.88
2022-12-04T05:08:00.699Z,143412.97
2022-12-04T05:10:27.502Z,143415.41
2022-12-04T05:12:54.327Z,143400.94
2022-12-04T05:15:21.129Z,143393.69
2022-12-04T05:17:47.936Z,143400.94
2022-12-04T05:20:14.760Z,143417.84
2022-12-04T05:22:41.580Z,143403.34
2022-12-04T05:25:08.684Z,143405.78
2022-12-04T05:27:35.491Z,143403.34
2022-12-04T05:30:02.390Z,143397.31
2022-12-04T05:32:29.358Z,143432.31
2022-12-04T05:34:56.485Z,143422.66
2022-12-04T05:37:23.916Z,143460.06
2022-12-04T05:39:50.781Z,143456.44
2022-12-04T05:42:17.663Z,143446.78
2022-12-04T05:44:44.458Z,143463.69
2022-12-04T05:47:11.381Z,143457.63
2022-12-04T05:49:38.270Z,143444.34
2022-12-04T05:52:05.775Z,143437.13
2022-12-04T05:54:32.763Z,143449.19
2022-12-04T05:56:59.719Z,143434.72
2022-12-04T05:59:26.636Z,143432.31
2022-12-04T06:01:53.491Z,143415.41
2022-12-04T06:04:20.386Z,143437.13
2022-12-04T06:06:47.235Z,143417.84
2022-12-04T06:09:14.063Z,143432.31
2022-12-04T06:11:42.012Z,143416.59
2022-12-04T06:14:10.848Z,143405.78
2022-12-04T06:16:38.895Z,143412.97
2022-12-04T06:19:07.263Z,143434.72
2022-12-04T06:21:35.262Z,143458.88
2022-12-04T06:24:02.473Z,143464.88
2022-12-04T06:26:29.431Z,143427.50
2022-12-04T06:28:57.421Z,143435.94
2022-12-04T06:31:24.955Z,143433.50
2022-12-04T06:33:53.008Z,143455.25
2022-12-04T06:36:21.155Z,143456.44
2022-12-04T06:38:48.881Z,143447.97
2022-12-04T06:41:17.872Z,143437.13
2022-12-04T06:43:44.746Z,143454.03
2022-12-04T06:46:16.254Z,143449.19
2022-12-04T06:48:43.286Z,143475.72
2022-12-04T06:51:11.966Z,143452.81
2022-12-04T06:53:38.801Z,143452.81
2022-12-04T06:56:07.249Z,143454.03
2022-12-04T06:58:34.426Z,143449.19
2022-12-04T07:01:12.396Z,143466.09
2022-12-04T07:03:40.046Z,143437.13
2022-12-04T07:06:13.745Z,143435.94
2022-12-04T07:08:41.028Z,143425.06
2022-12-04T07:11:07.964Z,143461.25
2022-12-04T07:13:35.115Z,143461.25
2022-12-04T07:16:03.095Z,143450.41
2022-12-04T07:18:30.497Z,143449.19
2022-12-04T07:20:57.417Z,143454.03
2022-12-04T07:23:24.507Z,143485.38
2022-12-04T07:25:51.437Z,143492.63
2022-12-04T07:28:18.254Z,143495.06
2022-12-04T07:30:45.045Z,143470.91
2022-12-04T07:33:11.840Z,143499.91
2022-12-04T07:35:38.672Z,143504.72
2022-12-04T07:38:05.505Z,143492.63
2022-12-04T07:40:32.302Z,143514.38
2022-12-04T07:42:59.102Z,143495.06
2022-12-04T07:45:25.896Z,143478.16
2022-12-04T07:47:52.780Z,143480.56
2022-12-04T07:50:19.575Z,143487.81
2022-12-04T07:52:46.385Z,143497.47
2022-12-04T07:55:13.322Z,143503.47
2022-12-04T07:57:40.170Z,143511.94
2022-12-04T08:00:07.313Z,143509.53
2022-12-04T08:02:38.697Z,143516.75
2022-12-04T08:05:05.693Z,143519.19
2022-12-04T08:07:33.573Z,143531.28
2022-12-04T08:10:00.398Z,143540.94
2022-12-04T08:12:27.253Z,143526.44
2022-12-04T08:14:54.054Z,143528.84
2022-12-04T08:17:21.009Z,143537.28
2022-12-04T08:19:47.961Z,143337.03
2022-12-04T08:22:14.777Z,143521.56
2022-12-04T08:24:42.215Z,143543.31
2022-12-04T08:27:09.035Z,143539.69
2022-12-04T08:29:36.283Z,143530.03
2022-12-04T08:32:03.396Z,143552.97
2022-12-04T08:34:30.253Z,143550.56
2022-12-04T08:36:57.129Z,143560.22
2022-12-04T08:39:24.140Z,143603.69
2022-12-04T08:41:55.369Z,143565.06
2022-12-04T08:44:23.949Z,143574.69
2022-12-04T08:46:50.793Z,143362.31
2022-12-04T08:49:17.777Z,143585.59
2022-12-04T08:51:44.659Z,143589.19
2022-12-04T08:54:12.526Z,143577.13
2022-12-04T08:56:39.427Z,143583.16
2022-12-04T08:59:06.374Z,143584.34
2022-12-04T09:01:33.263Z,143594.00
2022-12-04T09:04:00.392Z,143585.59
2022-12-04T09:06:27.312Z,143614.53
2022-12-04T09:08:55.221Z,143610.91
2022-12-04T09:11:22.934Z,143606.09
2022-12-04T09:13:50.231Z,143627.81
2022-12-04T09:16:21.678Z,143642.31
2022-12-04T09:18:49.109Z,143637.47
2022-12-04T09:21:18.552Z,143662.84
2022-12-04T09:23:46.343Z,143656.78
2022-12-04T09:26:32.053Z,143647.13
2022-12-04T09:29:00.124Z,143667.69
2022-12-04T09:31:27.356Z,143693.00
2022-12-04T09:33:54.402Z,143709.94
2022-12-04T09:36:21.241Z,143708.72
2022-12-04T09:38:49.547Z,143697.84
2022-12-04T09:41:25.171Z,143705.09
2022-12-04T09:43:51.980Z,143731.69
2022-12-04T09:46:26.043Z,143729.25
2022-12-04T09:48:53.925Z,143731.69
2022-12-04T09:51:22.547Z,143765.47
2022-12-04T09:54:15.584Z,143741.34
2022-12-04T09:56:43.995Z,143757.00
2022-12-04T09:59:22.079Z,143759.44
2022-12-04T10:01:51.766Z,143726.84
2022-12-04T10:04:19.000Z,143729.25
2022-12-04T10:06:53.520Z,143741.34
2022-12-04T10:09:24.483Z,143731.69
2022-12-04T10:12:12.238Z,143734.06
2022-12-04T10:14:59.473Z,143735.31
2022-12-04T10:17:32.261Z,143765.47
2022-12-04T10:20:08.839Z,143732.88
2022-12-04T10:22:41.476Z,143767.91
2022-12-04T10:25:11.299Z,143764.28
2022-12-04T10:27:42.169Z,143767.91
2022-12-04T10:30:28.873Z,143780.00
2022-12-04T10:33:13.436Z,143780.00
2022-12-04T10:35:42.240Z,143769.09
2022-12-04T10:38:32.433Z,143784.84
2022-12-04T10:41:15.034Z,143780.00
2022-12-04T10:43:46.412Z,143781.19
2022-12-04T10:46:15.370Z,143760.63
2022-12-04T10:48:42.596Z,143750.97
2022-12-04T10:51:16.428Z,143726.84
2022-12-04T10:53:44.133Z,143789.66
2022-12-04T10:56:12.599Z,143769.09
2022-12-04T10:58:39.549Z,143773.94
2022-12-04T11:01:08.152Z,143782.41
2022-12-04T11:03:35.305Z,143776.38
2022-12-04T11:06:04.161Z,143773.94
2022-12-04T11:08:34.729Z,143769.09
2022-12-04T11:11:03.085Z,143830.72
2022-12-04T11:13:29.945Z,143790.84
2022-12-04T11:15:58.387Z,143794.50
2022-12-04T11:18:27.289Z,143808.97
2022-12-04T11:20:56.583Z,143828.28
2022-12-04T11:23:23.988Z,143864.53
2022-12-04T11:25:52.394Z,143841.59
2022-12-04T11:28:41.140Z,143821.06
2022-12-04T11:31:09.280Z,143827.09
2022-12-04T11:33:38.816Z,143821.06
2022-12-04T11:36:13.739Z,143813.81
2022-12-04T11:38:40.575Z,143815.00
2022-12-04T11:41:23.338Z,143854.88
2022-12-04T11:43:53.079Z,143862.16
2022-12-04T11:46:24.680Z,143825.91
2022-12-04T11:48:51.771Z,143813.81
2022-12-04T11:51:21.356Z,143825.91
2022-12-04T11:53:56.575Z,143810.16
2022-12-04T11:56:27.025Z,143823.47
2022-12-04T11:58:53.809Z,143837.94
2022-12-04T12:01:26.633Z,143858.50
2022-12-04T12:04:19.684Z,143845.22
2022-12-04T12:06:58.660Z,143857.31
2022-12-04T12:09:31.685Z,143837.94
2022-12-04T12:12:21.193Z,143875.44
2022-12-04T12:14:56.540Z,143859.72
2022-12-04T12:17:29.209Z,143860.91
2022-12-04T12:19:59.454Z,143866.97
2022-12-04T12:22:32.182Z,143886.31
2022-12-04T12:25:05.925Z,143876.63
2022-12-04T12:27:51.389Z,143870.59
2022-12-04T12:30:19.474Z,143854.88
2022-12-04T12:32:58.177Z,143853.69
2022-12-04T12:35:25.150Z,143860.91
2022-12-04T12:37:59.521Z,143888.75
2022-12-04T12:40:31.986Z,143868.16
2022-12-04T12:43:21.685Z,143859.72
2022-12-04T12:45:55.072Z,143898.41
2022-12-04T12:48:28.506Z,143898.41
2022-12-04T12:51:22.020Z,143917.72
2022-12-04T12:53:47.962Z,143915.28
2022-12-04T12:56:16.742Z,143900.78
2022-12-04T12:58:50.460Z,143937.03
2022-12-04T13:01:20.691Z,143885.09
2022-12-04T13:04:05.832Z,143893.56
2022-12-04T13:06:38.933Z,143903.22
2022-12-04T13:09:17.973Z,143922.56
2022-12-04T13:11:46.693Z,143899.59
2022-12-04T13:14:14.218Z,143898.41
2022-12-04T13:16:43.932Z,143922.56
2022-12-04T13:19:19.788Z,143893.56
2022-12-04T13:21:52.407Z,143881.47
2022-12-04T13:24:25.025Z,143903.22
2022-12-04T13:27:10.472Z,143900.78
2022-12-04T13:29:49.561Z,143905.63
2022-12-04T13:32:33.423Z,143883.84
2022-12-04T13:35:15.087Z,143885.09
2022-12-04T13:37:48.295Z,143871.81
2022-12-04T13:40:17.978Z,143891.13
2022-12-04T13:42:44.905Z,143866.97
2022-12-04T13:45:12.617Z,143876.63
2022-12-04T13:47:39.454Z,143918.91
2022-12-04T13:50:18.577Z,143897.16
2022-12-04T13:52:47.281Z,143885.09
2022-12-04T13:55:23.331Z,143876.63
2022-12-04T13:57:57.615Z,143882.66
2022-12-04T14:00:26.827Z,143876.63
2022-12-04T14:02:55.449Z,143869.38
2022-12-04T14:05:27.036Z,143863.34
2022-12-04T14:08:06.859Z,143886.31
2022-12-04T14:10:36.804Z,143891.13
2022-12-04T14:13:13.004Z,143888.75
2022-12-04T14:15:40.236Z,143893.56
2022-12-04T14:18:13.261Z,143888.75
2022-12-04T14:20:41.584Z,143895.97
2022-12-04T14:23:19.858Z,143895.97
2022-12-04T14:25:46.685Z,143881.47
2022-12-04T14:28:25.838Z,143912.88
2022-12-04T14:30:58.559Z,143888.75
2022-12-04T14:33:29.149Z,143891.13
2022-12-04T14:36:02.317Z,143879.03
2022-12-04T14:38:29.437Z,143892.31
2022-12-04T14:40:57.999Z,143899.59
2022-12-04T14:43:27.295Z,143901.97
2022-12-04T14:45:54.269Z,143893.56
2022-12-04T14:48:45.602Z,143920.13
2022-12-04T14:51:18.685Z,143925.00
2022-12-04T14:53:53.037Z,143900.78
2022-12-04T14:56:39.135Z,143922.56
2022-12-04T14:59:16.912Z,143905.63
2022-12-04T15:01:45.936Z,143879.03
2022-12-04T15:04:24.269Z,143898.41
2022-12-04T15:06:58.330Z,143885.09
2022-12-04T15:09:46.205Z,143874.19
2022-12-04T15:12:34.676Z,143879.03
2022-12-04T15:15:24.808Z,143880.28
2022-12-04T15:17:58.382Z,143898.41
2022-12-04T15:20:26.078Z,143880.28
2022-12-04T15:22:53.947Z,143870.59
2022-12-04T15:25:22.473Z,143862.16
2022-12-04T15:27:50.926Z,143847.63
2022-12-04T15:30:19.454Z,143854.88
2022-12-04T15:32:48.122Z,143840.38
2022-12-04T15:35:29.612Z,143854.88
2022-12-04T15:37:56.934Z,143857.31
2022-12-04T15:40:26.720Z,143862.16
2022-12-04T15:42:54.454Z,143874.19
2022-12-04T15:45:28.470Z,143898.41
2022-12-04T15:47:55.741Z,143900.78
2022-12-04T15:50:26.887Z,143895.97
2022-12-04T15:53:19.953Z,143886.31
2022-12-04T15:55:49.321Z,143885.09
2022-12-04T15:58:26.996Z,143899.59
2022-12-04T16:00:58.458Z,143883.84
2022-12-04T16:03:28.166Z,143883.84
2022-12-04T16:06:21.471Z,143886.31
2022-12-04T16:08:50.138Z,143875.44
2022-12-04T16:11:20.241Z,143886.31
2022-12-04T16:13:48.133Z,143922.56
2022-12-04T16:16:20.813Z,143886.31
2022-12-04T16:18:47.685Z,143894.75
2022-12-04T16:21:16.305Z,143882.66
2022-12-04T16:23:43.550Z,143874.19
2022-12-04T16:26:18.278Z,143903.22
2022-12-04T16:28:45.634Z,143905.63
2022-12-04T16:31:13.256Z,143883.84
2022-12-04T16:33:40.621Z,143881.47
2022-12-04T16:36:09.947Z,143885.09
2022-12-04T16:38:36.872Z,143870.59
2022-12-04T16:41:07.306Z,143876.63
2022-12-04T16:43:35.318Z,143888.75
2022-12-04T16:46:02.262Z,143888.75
2022-12-04T16:48:34.523Z,143860.91
2022-12-04T16:51:01.483Z,143881.47
2022-12-04T16:53:28.482Z,143900.78
2022-12-04T16:55:55.407Z,143883.84
2022-12-04T16:58:22.347Z,143888.75
2022-12-04T17:00:53.842Z,143900.78
2022-12-04T17:03:23.475Z,143888.75
2022-12-04T17:05:50.455Z,143873.00
2022-12-04T17:08:17.497Z,143869.38
2022-12-04T17:10:44.474Z,143881.47
2022-12-04T17:13:11.363Z,143871.81
2022-12-04T17:15:38.341Z,143870.59
2022-12-04T17:18:10.690Z,143863.34
2022-12-04T17:20:40.750Z,143864.53
2022-12-04T17:23:08.095Z,143847.63
2022-12-04T17:25:34.916Z,143862.16
2022-12-04T17:28:01.846Z,143850.03
2022-12-04T17:30:34.326Z,143879.03
2022-12-04T17:33:02.731Z,143893.56
2022-12-04T17:35:29.606Z,143910.44
2022-12-04T17:38:00.612Z,143888.75
2022-12-04T17:40:30.828Z,143871.81
2022-12-04T17:42:57.637Z,143887.50
2022-12-04T17:45:24.509Z,143880.28
2022-12-04T17:47:51.315Z,143871.81
2022-12-04T17:50:18.160Z,143891.13
2022-12-04T17:52:44.950Z,143917.72
2022-12-04T17:55:11.779Z,143900.78
2022-12-04T17:57:38.580Z,143891.13
2022-12-04T18:00:05.773Z,143905.63
2022-12-04T18:02:41.354Z,143905.63
2022-12-04T18:05:09.058Z,143910.44
2022-12-04T18:07:36.003Z,143887.50
2022-12-04T18:10:02.892Z,143900.78
2022-12-04T18:12:29.774Z,143883.84
2022-12-04T18:14:56.582Z,143895.97
2022-12-04T18:17:23.512Z,143883.84
2022-12-04T18:19:50.354Z,143904.41
2022-12-04T18:22:17.208Z,143895.97
2022-12-04T18:24:44.032Z,143888.75
2022-12-04T18:27:10.925Z,143897.16
2022-12-04T18:29:37.716Z,143905.63
2022-12-04T18:32:04.700Z,143886.31
2022-12-04T18:34:31.821Z,143900.78
2022-12-04T18:36:58.765Z,143891.13
2022-12-04T18:39:25.908Z,143903.22
2022-12-04T18:41:56.847Z,143900.78
2022-12-04T18:44:24.556Z,143904.41
2022-12-04T18:46:51.438Z,143905.63
2022-12-04T18:49:18.288Z,143910.44
2022-12-04T18:51:49.725Z,143927.38
2022-12-04T18:54:18.392Z,143935.84
2022-12-04T18:56:45.777Z,143917.72
2022-12-04T18:59:14.153Z,143961.25
2022-12-04T19:01:41.454Z,143946.69
2022-12-04T19:04:09.969Z,143933.41
2022-12-04T19:06:38.752Z,143927.38
2022-12-04T19:09:07.178Z,143932.22
2022-12-04T19:11:34.458Z,143922.56
2022-12-04T19:14:01.833Z,143929.81
2022-12-04T19:16:28.812Z,143917.72
2022-12-04T19:18:55.981Z,143932.22
2022-12-04T19:21:23.793Z,143918.91
2022-12-04T19:23:53.019Z,143927.38
2022-12-04T19:26:19.953Z,143932.22
2022-12-04T19:28:46.938Z,143929.81
2022-12-04T19:31:14.685Z,143922.56
2022-12-04T19:33:41.615Z,143918.91
2022-12-04T19:36:08.598Z,143920.13
2022-12-04T19:38:35.422Z,143929.81
2022-12-04T19:41:12.774Z,143944.31
2022-12-04T19:43:40.720Z,143922.56
2022-12-04T19:46:08.699Z,143922.56
2022-12-04T19:48:37.742Z,143915.28
2022-12-04T19:51:08.994Z,143927.38
2022-12-04T19:53:40.897Z,143922.56
2022-12-04T19:56:09.786Z,143929.81
2022-12-04T19:58:36.702Z,143871.81
2022-12-04T20:01:07.932Z,143903.22
2022-12-04T20:03:35.260Z,143922.56
2022-12-04T20:06:05.545Z,143892.31
2022-12-04T20:08:32.532Z,143906.84
2022-12-04T20:11:06.212Z,143915.28
2022-12-04T20:13:36.423Z,143953.97
2022-12-04T20:16:03.923Z,143949.13
2022-12-04T20:18:30.827Z,143941.88
2022-12-04T20:20:59.000Z,143947.94
2022-12-04T20:23:26.412Z,143937.03
2022-12-04T20:25:53.303Z,143929.81
2022-12-04T20:28:20.529Z,143932.22
2022-12-04T20:30:47.498Z,143940.69
2022-12-04T20:33:14.465Z,143946.69
2022-12-04T20:35:41.300Z,143941.88
2022-12-04T20:38:08.420Z,143949.13
2022-12-04T20:40:35.304Z,143945.50
2022-12-04T20:43:02.138Z,143939.47
2022-12-04T20:45:29.933Z,143932.22
2022-12-04T20:47:56.923Z,143927.38
2022-12-04T20:50:23.765Z,143929.81
2022-12-04T20:52:50.756Z,143968.47
2022-12-04T20:55:17.882Z,143953.97
2022-12-04T20:57:44.867Z,143985.41
2022-12-04T21:00:11.978Z,143967.28
2022-12-04T21:02:38.878Z,143975.75
2022-12-04T21:05:05.922Z,143962.44
2022-12-04T21:07:32.838Z,143969.66
2022-12-04T21:10:00.094Z,144002.34
2022-12-04T21:12:45.592Z,143982.97
2022-12-04T21:15:31.276Z,143990.25
2022-12-04T21:18:00.090Z,143986.59
2022-12-04T21:20:26.997Z,143996.25
2022-12-04T21:22:53.804Z,144020.47
2022-12-04T21:25:20.820Z,144018.03
2022-12-04T21:27:47.640Z,144014.41
2022-12-04T21:30:14.496Z,144004.72
2022-12-04T21:32:41.305Z,144002.34
2022-12-04T21:35:08.309Z,143997.50
2022-12-04T21:37:35.507Z,144002.34
2022-12-04T21:40:03.723Z,144005.94
2022-12-04T21:42:30.566Z,144021.66
2022-12-04T21:44:57.888Z,144007.16
2022-12-04T21:47:24.816Z,144022.88
2022-12-04T21:49:51.694Z,144060.34
2022-12-04T21:52:19.117Z,144048.28
2022-12-04T21:54:52.814Z,144037.38
2022-12-04T21:57:20.132Z,144028.91
2022-12-04T21:59:47.047Z,144030.13
2022-12-04T22:02:14.593Z,144016.84
2022-12-04T22:04:44.700Z,144032.53
2022-12-04T22:07:11.499Z,144055.50
2022-12-04T22:09:38.641Z,144055.50
2022-12-04T22:12:26.350Z,144057.94
2022-12-04T22:14:52.475Z,144045.81
2022-12-04T22:17:19.460Z,144039.81
2022-12-04T22:19:46.274Z,144074.88
2022-12-04T22:22:13.077Z,144062.78
2022-12-04T22:24:40.030Z,144079.72
2022-12-04T22:27:06.843Z,144053.09
2022-12-04T22:29:49.690Z,144050.66
2022-12-04T22:32:20.447Z,144061.56
2022-12-04T22:34:47.886Z,144059.13
2022-12-04T22:37:14.820Z,144077.28
2022-12-04T22:39:41.725Z,144072.44
2022-12-04T22:42:08.587Z,144067.59
2022-12-04T22:44:35.465Z,144061.56
2022-12-04T22:47:02.360Z,144071.25
2022-12-04T22:49:29.240Z,144063.97
2022-12-04T22:51:56.649Z,144062.78
2022-12-04T22:54:23.452Z,144070.03
2022-12-04T22:56:50.257Z,144070.03
2022-12-04T22:59:17.060Z,144077.28
2022-12-04T23:01:43.876Z,144076.06
2022-12-04T23:04:10.764Z,144111.16
2022-12-04T23:06:37.602Z,144099.03
2022-12-04T23:09:07.452Z,144096.59
2022-12-04T23:11:35.257Z,144071.25
2022-12-04T23:14:03.196Z,144067.59
2022-12-04T23:16:31.064Z,144086.94
2022-12-04T23:18:58.558Z,144085.75
2022-12-04T23:21:25.978Z,144076.06
2022-12-04T23:23:53.820Z,144070.03
2022-12-04T23:26:25.198Z,144055.50
2022-12-04T23:28:52.216Z,144042.19
2022-12-04T23:31:19.328Z,144041.00
2022-12-04T23:33:46.532Z,144014.41
2022-12-04T23:36:14.130Z,144026.50
2022-12-04T23:38:41.788Z,144022.88
2022-12-04T23:41:12.232Z,144021.66
2022-12-04T23:43:40.719Z,144021.66
2022-12-04T23:46:11.255Z,144034.97
2022-12-04T23:48:39.393Z,144024.06
2022-12-04T23:51:06.542Z,144020.47
2022-12-04T23:53:33.487Z,144024.06
2022-12-04T23:56:02.427Z,144025.31
2022-12-04T23:58:29.306Z,144031.34
